• Join FlightAware (Why Join?)
  • Login
  • US Flag 
08:12AM EDT


 

Airport Tracker/Info


-or-


 

Live Flight TrackerFlight Track Log ✈ EGF3137 ✈ 17-Jul-2013 ✈ KORD - KDEN

Flight Track Log - Related Links

Times and Time Zones

All times are in EDT time to prevent confusion due to time zone crossing. See the EGF3137 flight status page for this flight to view local times or setup timezone preferences in your user account.

Time Position Orientation Groundspeed Altitude Reporting Facility
EDT Latitude Longitude Course Direction KTS MPH feet Rate Location/Type
11:58AM 42.0000 -87.9500 261° West 171 197 1,900  Level Chicago TRACON
11:59AM 42.0000 -88.0333 270° West 218 251 4,000 1,920 Climbing Chicago TRACON
12:00PM 41.9275 -88.3624 255° West  Level FlightAware Approximate
12:00PM 41.9861 -88.1572 261° West 246 283 6,700  Level Chicago Center
12:01PM 41.9108 -88.5174 261° West  Level FlightAware Approximate
12:01PM 41.9792 -88.2611 265° West 277 319 9,400  Level Chicago Center
12:02PM 41.8925 -88.6730 261° West  Level FlightAware Approximate
12:02PM 41.9714 -88.3864 265° West 283 326 12,100  Level Chicago Center
12:03PM 41.8744 -88.8285 261° West  Level FlightAware Approximate
12:03PM 41.9519 -88.4939 256° West 296 341 14,100  Level Chicago Center
12:04PM 41.9325 -88.6058 257° West 307 353 15,700 1,200 Climbing Chicago Center
12:05PM 41.9119 -88.7306 258° West 339 390 16,700 960 Climbing Chicago Center
12:07PM 41.8867 -88.8647 256° West 370 426 17,700 840 Climbing Chicago Center
12:08PM 41.8542 -89.0361 256° West 397 457 18,500 840 Climbing Chicago Center
12:09PM 41.8289 -89.1850 257° West 412 474 19,500 1,080 Climbing Chicago Center
12:10PM 41.8058 -89.3397 259° West 423 487 20,800 1,260 Climbing Chicago Center
12:11PM 41.7858 -89.4956 260° West 428 493 22,200 1,260 Climbing Chicago Center
12:12PM 41.7719 -89.6675 264° West 429 494 23,500 1,080 Climbing Chicago Center
12:13PM 41.7667 -89.8294 268° West 438 504 24,500 960 Climbing Chicago Center
12:14PM 41.7583 -89.9936 266° West 443 510 25,500 960 Climbing Chicago Center
12:15PM 41.7506 -90.1592 266° West 446 513 26,500 1,020 Climbing Chicago Center
12:16PM 41.7403 -90.3611 266° West 460 529 27,700 1,020 Climbing Chicago Center
12:17PM 41.7319 -90.5294 266° West 455 524 28,700 960 Climbing Chicago Center
12:18PM 41.7236 -90.6881 266° West 449 517 29,700 960 Climbing Chicago Center
12:19PM 41.7133 -90.8561 265° West 453 521 30,700 1,020 Climbing Chicago Center
12:20PM 41.7028 -91.0561 266° West 453 521 31,900 600 Climbing Chicago Center
12:21PM 41.6936 -91.2247 266° West 456 525 32,000  Climbing Chicago Center
12:22PM 41.6833 -91.3986 266° West 468 539 32,000  Level Chicago Center
12:23PM 41.6731 -91.5714 266° West 469 540 32,000  Level Chicago Center
12:24PM 41.6625 -91.7439 265° West 470 541 32,000  Level Chicago Center
12:25PM 41.6522 -91.9178 266° West 471 542 32,000  Level Chicago Center
12:26PM 41.6392 -92.1242 265° West 469 540 32,000  Level Chicago Center
12:27PM 41.6275 -92.2969 265° West 468 539 32,000  Level Chicago Center
12:28PM 41.6158 -92.4683 265° West 468 539 32,000  Level Chicago Center
12:29PM 41.6036 -92.6383 265° West 464 534 32,000  Level Chicago Center
12:30PM 41.5886 -92.8672 265° West 466 536 32,000  Level Minneapolis Center
12:31PM 41.5750 -93.0372 264° West 465 535 32,000  Level Minneapolis Center
12:33PM 41.5622 -93.2072 264° West 466 536 32,000  Level Minneapolis Center
12:34PM 41.5500 -93.3769 265° West 465 535 32,000  Level Minneapolis Center
12:35PM 41.5369 -93.5478 264° West 467 537 32,000  Level Minneapolis Center
12:36PM 41.5217 -93.7528 264° West 467 537 32,000  Level Minneapolis Center
12:37PM 41.5089 -93.9194 264° West 464 534 32,000  Level Minneapolis Center
12:38PM 41.4956 -94.0925 264° West 471 542 32,000  Level Minneapolis Center
12:39PM 41.4786 -94.2758 263° West 478 550 32,000  Level Minneapolis Center
12:40PM 41.4603 -94.4850 263° West 474 545 32,000  Level Minneapolis Center
12:41PM 41.4489 -94.6244 264° West 474 545 32,000  Level Minneapolis Center
12:42PM 41.4272 -94.8694 263° West 474 545 32,000  Level Minneapolis Center
12:43PM 41.4108 -95.0422 263° West 470 541 32,000  Level Minneapolis Center
12:44PM 41.3958 -95.2197 264° West 478 550 32,000  Level Minneapolis Center
12:45PM 41.3789 -95.3961 263° West 481 554 32,000  Level Minneapolis Center
12:46PM 41.3614 -95.5719 263° West 479 551 32,000  Level Minneapolis Center
12:47PM 41.3447 -95.7503 263° West 483 556 32,000  Level Minneapolis Center
12:48PM 41.3236 -95.9614 262° West 480 552 32,000  Level Minneapolis Center
12:49PM 41.3058 -96.1375 262° West 480 552 32,000  Level Minneapolis Center
12:50PM 41.2886 -96.3136 263° West 480 552 32,000  Level Minneapolis Center
12:51PM 41.2686 -96.5056 262° West 479 551 32,000  Level Minneapolis Center
12:52PM 41.2500 -96.6811 262° West 478 550 32,000  Level Minneapolis Center
12:53PM 41.2303 -96.8550 261° West 477 549 32,000  Level Minneapolis Center
12:54PM 41.2111 -97.0311 262° West 480 552 32,000  Level Minneapolis Center
12:55PM 41.1919 -97.2056 262° West 480 552 32,000  Level Minneapolis Center
12:57PM 41.1706 -97.4008 262° West 480 552 32,000  Level Minneapolis Center
12:58PM 41.1508 -97.5764 262° West 481 554 32,000  Level Minneapolis Center
12:59PM 41.1308 -97.7528 261° West 482 555 32,000  Level Minneapolis Center
01:00PM 41.1103 -97.9281 261° West 481 554 32,000  Level Minneapolis Center
01:01PM 41.0853 -98.1408 261° West 485 558 32,000  Level Minneapolis Center
01:02PM 41.0642 -98.3172 261° West 484 557 32,000  Level Minneapolis Center
01:03PM 41.0433 -98.5067 262° West 484 557 32,000  Level Minneapolis Center
01:04PM 41.0219 -98.6825 261° West 484 557 32,000  Level Minneapolis Center
01:05PM 41.0011 -98.8639 261° West 495 570 32,000  Level Minneapolis Center
01:06PM 40.9836 -99.0411 263° West 491 565 32,000  Level Minneapolis Center
01:07PM 40.9617 -99.2194 261° West 488 562 32,000  Level Minneapolis Center
01:08PM 40.9372 -99.3958 260° West 488 562 32,000  Level Minneapolis Center
01:09PM 40.9067 -99.6064 259° West 485 558 32,000  Level Minneapolis Center
01:10PM 40.8800 -99.7814 259° West 487 560 32,000  Level Denver Center
01:11PM 40.8511 -99.9719 259° West 487 560 32,000  Level Denver Center
01:12PM 40.8219 -100.1681 259° West 486 559 32,000  Level Denver Center
01:13PM 40.7964 -100.3342 259° West 483 556 32,000  Level Denver Center
01:14PM 40.7706 -100.5014 259° West 481 554 32,000  Level Denver Center
01:15PM 40.7375 -100.7003 258° West 491 565 32,000  Level Denver Center
01:16PM 40.7117 -100.8739 259° West 486 559 32,000  Level Denver Center
01:17PM 40.6853 -101.0417 258° West 484 557 32,000  Level Denver Center
01:18PM 40.6542 -101.2353 258° West 483 556 32,000  Level Denver Center
01:19PM 40.6275 -101.4008 258° West 483 556 32,000  Level Denver Center
01:20PM 40.5956 -101.5925 258° West 480 552 32,000  Level Denver Center
01:21PM 40.5678 -101.7581 258° West 483 556 32,000  Level Denver Center
01:23PM 40.5358 -101.9506 258° West 482 555 32,000  Level Denver Center
01:24PM 40.5089 -102.1158 258° West 483 556 32,000  Level Denver Center
01:25PM 40.4761 -102.3069 257° West 482 555 32,000  Level Denver Center
01:26PM 40.4469 -102.4708 257° West 481 554 32,000  Level Denver Center
01:27PM 40.4144 -102.6619 257° West 481 554 32,000 -780 Level Denver Center
01:28PM 40.3772 -102.8692 257° West 481 554 30,300 -2,040 Descending Denver Center
01:29PM 40.3481 -103.0353 257° West 471 542 27,800 -2,400 Descending Denver Center
01:30PM 40.3197 -103.1947 257° West 452 520 25,300 -2,400 Descending Denver Center
01:31PM 40.2925 -103.3475 257° West 434 499 22,800 -2,460 Descending Denver Center
01:32PM 40.2653 -103.4956 256° West 423 487 20,300 -2,520 Descending Denver Center
01:33PM 40.2344 -103.6669 257° West 406 467 17,700 -1,620 Descending Denver Center
01:34PM 40.2111 -103.7928 256° West 362 417 17,000 -540 Descending Denver Center
01:35PM 40.2075 -103.9183 268° West 323 372 16,700 -960 Descending Denver Center
01:36PM 40.2181 -104.0364 277° West 328 377 15,100 -1,560 Descending Denver Center
01:37PM 40.2286 -104.1575 277° West 312 359 13,500 -1,440 Descending Denver Center
01:38PM 40.2381 -104.2575 277° West 281 323 12,200 -1,020 Descending Denver Center
01:39PM 40.2461 -104.3561 276° West 259 298 11,400 -900 Descending Denver Center
01:40PM 40.2247 -104.4433 252° West 252 290 10,400 -1,020 Descending Denver Center
01:41PM 40.2006 -104.5333 251° West 244 281 9,400 -780 Descending Denver Center
01:42PM 40.1564 -104.5864 223° Southwest 223 257 8,800 -1,020 Descending Denver Center
01:43PM 40.0964 -104.6206 204° Southwest 234 269 7,300 -1,500 Descending Denver Center